sensor_id;sensor_type;location;lat;lon;timestamp;P1;durP1;ratioP1;P2;durP2;ratioP2
59788;SDS011;47353;51.614;5.530;2022-10-26T00:01:25;14.45;;;7.93;;
59788;SDS011;47353;51.614;5.530;2022-10-26T00:03:50;11.75;;;8.57;;
59788;SDS011;47353;51.614;5.530;2022-10-26T00:06:19;12.23;;;7.57;;
59788;SDS011;47353;51.614;5.530;2022-10-26T00:08:46;11.98;;;8.23;;
59788;SDS011;47353;51.614;5.530;2022-10-26T00:11:12;12.18;;;7.70;;
59788;SDS011;47353;51.614;5.530;2022-10-26T00:13:39;14.60;;;7.78;;
59788;SDS011;47353;51.614;5.530;2022-10-26T00:16:08;14.05;;;8.45;;
59788;SDS011;47353;51.614;5.530;2022-10-26T00:18:35;16.95;;;8.10;;
59788;SDS011;47353;51.614;5.530;2022-10-26T00:21:02;11.88;;;7.50;;
59788;SDS011;47353;51.614;5.530;2022-10-26T00:23:28;13.02;;;7.88;;
59788;SDS011;47353;51.614;5.530;2022-10-26T00:25:55;11.80;;;7.55;;
59788;SDS011;47353;51.614;5.530;2022-10-26T00:28:21;12.30;;;7.45;;
59788;SDS011;47353;51.614;5.530;2022-10-26T00:30:46;13.45;;;7.22;;
59788;SDS011;47353;51.614;5.530;2022-10-26T00:33:12;11.70;;;7.32;;
59788;SDS011;47353;51.614;5.530;2022-10-26T00:35:37;10.25;;;7.07;;
59788;SDS011;47353;51.614;5.530;2022-10-26T00:38:03;13.98;;;7.35;;
59788;SDS011;47353;51.614;5.530;2022-10-26T00:40:28;12.93;;;7.38;;
59788;SDS011;47353;51.614;5.530;2022-10-26T00:42:54;13.00;;;7.20;;
59788;SDS011;47353;51.614;5.530;2022-10-26T00:45:22;16.35;;;7.32;;
59788;SDS011;47353;51.614;5.530;2022-10-26T00:47:55;11.65;;;7.82;;
59788;SDS011;47353;51.614;5.530;2022-10-26T00:50:32;14.50;;;7.32;;
59788;SDS011;47353;51.614;5.530;2022-10-26T00:53:01;13.57;;;7.70;;
59788;SDS011;47353;51.614;5.530;2022-10-26T00:55:30;11.32;;;7.80;;
59788;SDS011;47353;51.614;5.530;2022-10-26T00:57:58;14.00;;;8.43;;
59788;SDS011;47353;51.614;5.530;2022-10-26T01:00:26;14.43;;;8.38;;
59788;SDS011;47353;51.614;5.530;2022-10-26T01:02:52;15.43;;;8.60;;
59788;SDS011;47353;51.614;5.530;2022-10-26T01:05:20;14.00;;;8.80;;
59788;SDS011;47353;51.614;5.530;2022-10-26T01:07:45;13.40;;;8.40;;
59788;SDS011;47353;51.614;5.530;2022-10-26T01:10:12;15.35;;;8.82;;
59788;SDS011;47353;51.614;5.530;2022-10-26T01:12:38;12.95;;;8.00;;
59788;SDS011;47353;51.614;5.530;2022-10-26T01:15:04;15.63;;;8.07;;
59788;SDS011;47353;51.614;5.530;2022-10-26T01:27:54;19.23;;;8.50;;
59788;SDS011;47353;51.614;5.530;2022-10-26T01:30:34;14.95;;;7.82;;
59788;SDS011;47353;51.614;5.530;2022-10-26T01:39:13;12.55;;;7.93;;
59788;SDS011;47353;51.614;5.530;2022-10-26T01:41:49;14.52;;;7.93;;
59788;SDS011;47353;51.614;5.530;2022-10-26T01:44:19;14.15;;;7.35;;
59788;SDS011;47353;51.614;5.530;2022-10-26T01:46:50;13.10;;;7.85;;
59788;SDS011;47353;51.614;5.530;2022-10-26T01:49:23;13.85;;;7.45;;
59788;SDS011;47353;51.614;5.530;2022-10-26T01:51:52;12.05;;;7.40;;
59788;SDS011;47353;51.614;5.530;2022-10-26T01:54:18;13.07;;;7.80;;
59788;SDS011;47353;51.614;5.530;2022-10-26T01:56:44;12.57;;;7.15;;
59788;SDS011;47353;51.614;5.530;2022-10-26T02:07:04;11.55;;;7.32;;
59788;SDS011;47353;51.614;5.530;2022-10-26T02:09:50;12.85;;;7.32;;
59788;SDS011;47353;51.614;5.530;2022-10-26T02:15:24;13.38;;;7.60;;
59788;SDS011;47353;51.614;5.530;2022-10-26T02:20:29;13.90;;;7.75;;
59788;SDS011;47353;51.614;5.530;2022-10-26T02:23:00;14.27;;;8.00;;
59788;SDS011;47353;51.614;5.530;2022-10-26T02:25:31;14.57;;;7.85;;
59788;SDS011;47353;51.614;5.530;2022-10-26T02:28:04;16.20;;;8.70;;
59788;SDS011;47353;51.614;5.530;2022-10-26T02:30:32;19.98;;;8.18;;
59788;SDS011;47353;51.614;5.530;2022-10-26T02:32:59;13.05;;;8.18;;
59788;SDS011;47353;51.614;5.530;2022-10-26T02:35:28;14.50;;;8.05;;
59788;SDS011;47353;51.614;5.530;2022-10-26T02:37:56;14.52;;;8.40;;
59788;SDS011;47353;51.614;5.530;2022-10-26T02:40:26;15.23;;;8.65;;
59788;SDS011;47353;51.614;5.530;2022-10-26T02:42:53;13.02;;;8.95;;
59788;SDS011;47353;51.614;5.530;2022-10-26T02:45:26;12.40;;;8.20;;
59788;SDS011;47353;51.614;5.530;2022-10-26T02:47:57;15.38;;;8.85;;
59788;SDS011;47353;51.614;5.530;2022-10-26T02:50:24;14.02;;;8.80;;
59788;SDS011;47353;51.614;5.530;2022-10-26T02:55:47;13.07;;;9.15;;
59788;SDS011;47353;51.614;5.530;2022-10-26T02:58:25;16.60;;;10.57;;
59788;SDS011;47353;51.614;5.530;2022-10-26T03:00:53;15.25;;;9.88;;
59788;SDS011;47353;51.614;5.530;2022-10-26T03:03:19;15.45;;;9.20;;
59788;SDS011;47353;51.614;5.530;2022-10-26T03:05:45;14.02;;;8.13;;
59788;SDS011;47353;51.614;5.530;2022-10-26T03:08:11;11.25;;;8.25;;
59788;SDS011;47353;51.614;5.530;2022-10-26T03:10:40;14.50;;;8.20;;
59788;SDS011;47353;51.614;5.530;2022-10-26T03:13:08;11.73;;;8.30;;
59788;SDS011;47353;51.614;5.530;2022-10-26T03:15:34;11.77;;;8.10;;
59788;SDS011;47353;51.614;5.530;2022-10-26T03:18:00;12.02;;;8.95;;
59788;SDS011;47353;51.614;5.530;2022-10-26T03:20:26;11.93;;;7.93;;
59788;SDS011;47353;51.614;5.530;2022-10-26T03:22:51;17.15;;;8.25;;
59788;SDS011;47353;51.614;5.530;2022-10-26T03:25:17;17.58;;;7.80;;
59788;SDS011;47353;51.614;5.530;2022-10-26T03:27:42;10.10;;;7.43;;
59788;SDS011;47353;51.614;5.530;2022-10-26T03:30:08;15.00;;;7.85;;
59788;SDS011;47353;51.614;5.530;2022-10-26T03:32:34;12.13;;;7.43;;
59788;SDS011;47353;51.614;5.530;2022-10-26T03:34:59;11.13;;;7.88;;
59788;SDS011;47353;51.614;5.530;2022-10-26T03:37:25;11.45;;;8.13;;
59788;SDS011;47353;51.614;5.530;2022-10-26T03:39:50;11.73;;;7.38;;
59788;SDS011;47353;51.614;5.530;2022-10-26T03:42:16;12.23;;;7.50;;
59788;SDS011;47353;51.614;5.530;2022-10-26T03:44:41;14.73;;;8.30;;
59788;SDS011;47353;51.614;5.530;2022-10-26T03:47:07;13.20;;;6.85;;
59788;SDS011;47353;51.614;5.530;2022-10-26T03:49:32;13.10;;;7.65;;
59788;SDS011;47353;51.614;5.530;2022-10-26T03:52:00;14.05;;;7.15;;
59788;SDS011;47353;51.614;5.530;2022-10-26T03:54:25;10.55;;;6.90;;
59788;SDS011;47353;51.614;5.530;2022-10-26T03:56:51;13.70;;;6.85;;
59788;SDS011;47353;51.614;5.530;2022-10-26T03:59:17;11.13;;;6.85;;
59788;SDS011;47353;51.614;5.530;2022-10-26T04:01:42;11.15;;;6.97;;
59788;SDS011;47353;51.614;5.530;2022-10-26T04:04:07;11.27;;;6.97;;
59788;SDS011;47353;51.614;5.530;2022-10-26T04:06:33;14.93;;;6.88;;
59788;SDS011;47353;51.614;5.530;2022-10-26T04:08:58;14.40;;;6.97;;
59788;SDS011;47353;51.614;5.530;2022-10-26T04:11:26;11.10;;;6.40;;
59788;SDS011;47353;51.614;5.530;2022-10-26T04:13:52;9.50;;;6.63;;
59788;SDS011;47353;51.614;5.530;2022-10-26T04:16:18;14.30;;;6.60;;
59788;SDS011;47353;51.614;5.530;2022-10-26T04:18:43;13.32;;;6.60;;
59788;SDS011;47353;51.614;5.530;2022-10-26T04:21:10;13.93;;;7.22;;
59788;SDS011;47353;51.614;5.530;2022-10-26T04:23:35;10.32;;;6.53;;
59788;SDS011;47353;51.614;5.530;2022-10-26T04:26:00;11.93;;;6.30;;
59788;SDS011;47353;51.614;5.530;2022-10-26T04:28:28;11.90;;;6.40;;
59788;SDS011;47353;51.614;5.530;2022-10-26T04:30:53;11.80;;;6.65;;
59788;SDS011;47353;51.614;5.530;2022-10-26T04:33:19;12.75;;;7.03;;
59788;SDS011;47353;51.614;5.530;2022-10-26T04:35:44;13.38;;;6.95;;
59788;SDS011;47353;51.614;5.530;2022-10-26T04:38:10;11.30;;;6.45;;
59788;SDS011;47353;51.614;5.530;2022-10-26T04:40:35;12.52;;;6.32;;
59788;SDS011;47353;51.614;5.530;2022-10-26T04:43:00;14.07;;;6.75;;
59788;SDS011;47353;51.614;5.530;2022-10-26T04:45:26;16.52;;;7.45;;
59788;SDS011;47353;51.614;5.530;2022-10-26T04:48:12;12.90;;;6.70;;
59788;SDS011;47353;51.614;5.530;2022-10-26T04:50:38;14.32;;;6.95;;
59788;SDS011;47353;51.614;5.530;2022-10-26T04:53:04;11.15;;;6.72;;
59788;SDS011;47353;51.614;5.530;2022-10-26T04:55:31;12.98;;;7.28;;
59788;SDS011;47353;51.614;5.530;2022-10-26T04:57:57;11.70;;;7.05;;
59788;SDS011;47353;51.614;5.530;2022-10-26T05:00:22;13.15;;;7.03;;
59788;SDS011;47353;51.614;5.530;2022-10-26T05:02:48;12.82;;;6.88;;
59788;SDS011;47353;51.614;5.530;2022-10-26T05:05:13;10.77;;;6.35;;
59788;SDS011;47353;51.614;5.530;2022-10-26T05:07:39;11.10;;;7.05;;
59788;SDS011;47353;51.614;5.530;2022-10-26T05:10:04;12.73;;;7.10;;
59788;SDS011;47353;51.614;5.530;2022-10-26T05:12:30;12.45;;;6.65;;
59788;SDS011;47353;51.614;5.530;2022-10-26T05:14:56;12.80;;;6.97;;
59788;SDS011;47353;51.614;5.530;2022-10-26T05:17:23;14.68;;;6.47;;
59788;SDS011;47353;51.614;5.530;2022-10-26T05:19:52;11.57;;;6.63;;
59788;SDS011;47353;51.614;5.530;2022-10-26T05:22:23;13.88;;;6.72;;
59788;SDS011;47353;51.614;5.530;2022-10-26T05:24:49;14.35;;;7.18;;
59788;SDS011;47353;51.614;5.530;2022-10-26T05:27:14;13.63;;;6.85;;
59788;SDS011;47353;51.614;5.530;2022-10-26T05:29:40;14.80;;;6.85;;
59788;SDS011;47353;51.614;5.530;2022-10-26T05:32:05;12.27;;;6.82;;
59788;SDS011;47353;51.614;5.530;2022-10-26T05:34:30;11.50;;;6.72;;
59788;SDS011;47353;51.614;5.530;2022-10-26T05:36:56;13.52;;;6.78;;
59788;SDS011;47353;51.614;5.530;2022-10-26T05:39:21;11.90;;;6.43;;
59788;SDS011;47353;51.614;5.530;2022-10-26T05:41:47;12.02;;;6.85;;
59788;SDS011;47353;51.614;5.530;2022-10-26T05:44:12;11.23;;;6.97;;
59788;SDS011;47353;51.614;5.530;2022-10-26T05:46:37;12.45;;;6.80;;
59788;SDS011;47353;51.614;5.530;2022-10-26T05:49:03;12.80;;;6.50;;
59788;SDS011;47353;51.614;5.530;2022-10-26T05:51:28;11.48;;;6.15;;
59788;SDS011;47353;51.614;5.530;2022-10-26T05:53:54;15.32;;;6.90;;
59788;SDS011;47353;51.614;5.530;2022-10-26T05:56:20;10.75;;;6.10;;
59788;SDS011;47353;51.614;5.530;2022-10-26T05:59:02;14.20;;;6.32;;
59788;SDS011;47353;51.614;5.530;2022-10-26T06:07:09;11.02;;;5.95;;
59788;SDS011;47353;51.614;5.530;2022-10-26T06:09:37;11.63;;;6.47;;
59788;SDS011;47353;51.614;5.530;2022-10-26T06:12:04;11.23;;;6.90;;
59788;SDS011;47353;51.614;5.530;2022-10-26T06:14:31;11.82;;;6.20;;
59788;SDS011;47353;51.614;5.530;2022-10-26T06:17:11;12.40;;;6.50;;
59788;SDS011;47353;51.614;5.530;2022-10-26T06:22:51;9.63;;;5.93;;
59788;SDS011;47353;51.614;5.530;2022-10-26T06:31:02;15.35;;;8.50;;
59788;SDS011;47353;51.614;5.530;2022-10-26T06:33:28;14.82;;;6.50;;
59788;SDS011;47353;51.614;5.530;2022-10-26T06:39:02;13.10;;;6.50;;
59788;SDS011;47353;51.614;5.530;2022-10-26T06:41:31;10.88;;;6.60;;
59788;SDS011;47353;51.614;5.530;2022-10-26T06:43:58;14.20;;;6.47;;
59788;SDS011;47353;51.614;5.530;2022-10-26T06:49:36;13.32;;;6.45;;
59788;SDS011;47353;51.614;5.530;2022-10-26T06:55:11;11.77;;;6.60;;
59788;SDS011;47353;51.614;5.530;2022-10-26T06:57:38;10.68;;;6.43;;
59788;SDS011;47353;51.614;5.530;2022-10-26T07:00:18;14.48;;;6.95;;
59788;SDS011;47353;51.614;5.530;2022-10-26T07:02:46;9.90;;;6.50;;
59788;SDS011;47353;51.614;5.530;2022-10-26T07:05:12;16.23;;;6.38;;
59788;SDS011;47353;51.614;5.530;2022-10-26T07:07:42;10.98;;;5.82;;
59788;SDS011;47353;51.614;5.530;2022-10-26T07:10:09;11.63;;;5.95;;
59788;SDS011;47353;51.614;5.530;2022-10-26T07:12:35;11.02;;;6.22;;
59788;SDS011;47353;51.614;5.530;2022-10-26T07:15:01;10.80;;;5.85;;
59788;SDS011;47353;51.614;5.530;2022-10-26T07:17:27;11.02;;;6.00;;
59788;SDS011;47353;51.614;5.530;2022-10-26T07:19:54;14.25;;;6.13;;
59788;SDS011;47353;51.614;5.530;2022-10-26T07:22:20;12.02;;;5.95;;
59788;SDS011;47353;51.614;5.530;2022-10-26T07:24:46;12.85;;;6.35;;
59788;SDS011;47353;51.614;5.530;2022-10-26T07:27:15;8.07;;;5.90;;
59788;SDS011;47353;51.614;5.530;2022-10-26T07:29:41;11.43;;;5.97;;
59788;SDS011;47353;51.614;5.530;2022-10-26T07:32:06;13.60;;;6.18;;
59788;SDS011;47353;51.614;5.530;2022-10-26T07:34:32;8.45;;;5.85;;
59788;SDS011;47353;51.614;5.530;2022-10-26T07:37:00;11.60;;;5.90;;
59788;SDS011;47353;51.614;5.530;2022-10-26T07:39:26;10.05;;;5.68;;
59788;SDS011;47353;51.614;5.530;2022-10-26T07:41:51;9.50;;;5.30;;
59788;SDS011;47353;51.614;5.530;2022-10-26T07:44:17;11.60;;;5.80;;
59788;SDS011;47353;51.614;5.530;2022-10-26T07:46:43;10.38;;;5.07;;
59788;SDS011;47353;51.614;5.530;2022-10-26T07:49:08;10.88;;;5.15;;
59788;SDS011;47353;51.614;5.530;2022-10-26T07:51:34;14.27;;;5.13;;
59788;SDS011;47353;51.614;5.530;2022-10-26T07:53:59;9.00;;;5.28;;
59788;SDS011;47353;51.614;5.530;2022-10-26T07:56:25;8.15;;;4.95;;
59788;SDS011;47353;51.614;5.530;2022-10-26T07:58:53;10.70;;;6.13;;
59788;SDS011;47353;51.614;5.530;2022-10-26T08:01:19;8.32;;;5.13;;
59788;SDS011;47353;51.614;5.530;2022-10-26T08:03:51;8.82;;;5.20;;
59788;SDS011;47353;51.614;5.530;2022-10-26T08:06:18;11.93;;;5.65;;
59788;SDS011;47353;51.614;5.530;2022-10-26T08:08:43;12.07;;;4.93;;
59788;SDS011;47353;51.614;5.530;2022-10-26T08:11:11;8.18;;;5.00;;
59788;SDS011;47353;51.614;5.530;2022-10-26T08:13:36;11.63;;;5.38;;
59788;SDS011;47353;51.614;5.530;2022-10-26T08:16:03;8.32;;;4.80;;
59788;SDS011;47353;51.614;5.530;2022-10-26T08:18:29;10.25;;;5.20;;
59788;SDS011;47353;51.614;5.530;2022-10-26T08:20:59;11.95;;;4.72;;
59788;SDS011;47353;51.614;5.530;2022-10-26T08:23:26;11.15;;;4.40;;
59788;SDS011;47353;51.614;5.530;2022-10-26T08:25:52;9.48;;;4.80;;
59788;SDS011;47353;51.614;5.530;2022-10-26T08:28:22;9.20;;;4.30;;
59788;SDS011;47353;51.614;5.530;2022-10-26T08:30:47;7.47;;;4.45;;
59788;SDS011;47353;51.614;5.530;2022-10-26T08:33:13;6.90;;;4.40;;
59788;SDS011;47353;51.614;5.530;2022-10-26T08:35:38;7.72;;;4.10;;
59788;SDS011;47353;51.614;5.530;2022-10-26T08:38:03;9.55;;;3.97;;
59788;SDS011;47353;51.614;5.530;2022-10-26T08:40:30;8.05;;;3.83;;
59788;SDS011;47353;51.614;5.530;2022-10-26T08:43:04;8.73;;;3.70;;
59788;SDS011;47353;51.614;5.530;2022-10-26T08:45:35;8.07;;;3.90;;
59788;SDS011;47353;51.614;5.530;2022-10-26T08:48:14;6.50;;;3.22;;
59788;SDS011;47353;51.614;5.530;2022-10-26T08:50:48;6.03;;;3.20;;
59788;SDS011;47353;51.614;5.530;2022-10-26T08:53:23;5.28;;;2.67;;
59788;SDS011;47353;51.614;5.530;2022-10-26T08:55:52;7.68;;;2.78;;
59788;SDS011;47353;51.614;5.530;2022-10-26T08:58:30;4.38;;;2.30;;
59788;SDS011;47353;51.614;5.530;2022-10-26T09:01:00;6.43;;;2.58;;
59788;SDS011;47353;51.614;5.530;2022-10-26T09:03:27;6.65;;;2.40;;
59788;SDS011;47353;51.614;5.530;2022-10-26T09:11:01;7.18;;;2.15;;
59788;SDS011;47353;51.614;5.530;2022-10-26T09:22:01;5.50;;;2.20;;
59788;SDS011;47353;51.614;5.530;2022-10-26T09:24:41;4.95;;;1.85;;
59788;SDS011;47353;51.614;5.530;2022-10-26T09:27:25;5.72;;;2.28;;
59788;SDS011;47353;51.614;5.530;2022-10-26T09:29:56;6.13;;;2.28;;
59788;SDS011;47353;51.614;5.530;2022-10-26T09:32:45;4.85;;;2.15;;
59788;SDS011;47353;51.614;5.530;2022-10-26T09:35:16;9.43;;;2.70;;
59788;SDS011;47353;51.614;5.530;2022-10-26T09:37:55;5.35;;;2.33;;
59788;SDS011;47353;51.614;5.530;2022-10-26T09:40:35;6.47;;;2.65;;
59788;SDS011;47353;51.614;5.530;2022-10-26T09:45:38;7.40;;;2.42;;
59788;SDS011;47353;51.614;5.530;2022-10-26T09:50:57;7.55;;;2.53;;
59788;SDS011;47353;51.614;5.530;2022-10-26T09:53:24;3.80;;;2.20;;
59788;SDS011;47353;51.614;5.530;2022-10-26T09:55:50;5.80;;;2.47;;
59788;SDS011;47353;51.614;5.530;2022-10-26T09:58:26;5.63;;;2.08;;
59788;SDS011;47353;51.614;5.530;2022-10-26T10:00:54;7.15;;;2.20;;
59788;SDS011;47353;51.614;5.530;2022-10-26T10:03:24;5.65;;;2.72;;
59788;SDS011;47353;51.614;5.530;2022-10-26T10:05:51;7.05;;;2.50;;
59788;SDS011;47353;51.614;5.530;2022-10-26T10:13:42;5.13;;;2.15;;
59788;SDS011;47353;51.614;5.530;2022-10-26T10:16:19;7.45;;;2.20;;
59788;SDS011;47353;51.614;5.530;2022-10-26T10:18:51;9.25;;;2.47;;
59788;SDS011;47353;51.614;5.530;2022-10-26T10:21:19;7.03;;;2.13;;
59788;SDS011;47353;51.614;5.530;2022-10-26T10:23:49;8.52;;;2.30;;
59788;SDS011;47353;51.614;5.530;2022-10-26T10:28:54;6.97;;;2.58;;
59788;SDS011;47353;51.614;5.530;2022-10-26T10:31:26;5.32;;;2.15;;
59788;SDS011;47353;51.614;5.530;2022-10-26T10:33:53;5.43;;;2.00;;
59788;SDS011;47353;51.614;5.530;2022-10-26T10:36:19;4.85;;;2.13;;
59788;SDS011;47353;51.614;5.530;2022-10-26T10:38:49;5.72;;;2.05;;
59788;SDS011;47353;51.614;5.530;2022-10-26T10:41:17;8.50;;;2.10;;
59788;SDS011;47353;51.614;5.530;2022-10-26T10:46:25;4.75;;;1.95;;
59788;SDS011;47353;51.614;5.530;2022-10-26T10:48:59;4.30;;;2.03;;
59788;SDS011;47353;51.614;5.530;2022-10-26T10:51:27;9.15;;;2.28;;
59788;SDS011;47353;51.614;5.530;2022-10-26T10:53:59;6.20;;;2.20;;
59788;SDS011;47353;51.614;5.530;2022-10-26T10:56:41;8.43;;;2.05;;
59788;SDS011;47353;51.614;5.530;2022-10-26T11:01:48;4.70;;;2.10;;
59788;SDS011;47353;51.614;5.530;2022-10-26T11:07:17;7.20;;;2.30;;
59788;SDS011;47353;51.614;5.530;2022-10-26T11:09:46;6.53;;;1.63;;
59788;SDS011;47353;51.614;5.530;2022-10-26T11:12:15;4.75;;;1.90;;
59788;SDS011;47353;51.614;5.530;2022-10-26T11:14:55;4.65;;;2.20;;
59788;SDS011;47353;51.614;5.530;2022-10-26T11:17:26;7.90;;;2.20;;
59788;SDS011;47353;51.614;5.530;2022-10-26T11:20:19;5.45;;;2.30;;
59788;SDS011;47353;51.614;5.530;2022-10-26T11:25:24;4.85;;;1.90;;
59788;SDS011;47353;51.614;5.530;2022-10-26T11:28:13;6.00;;;2.15;;
59788;SDS011;47353;51.614;5.530;2022-10-26T11:30:46;7.75;;;2.13;;
59788;SDS011;47353;51.614;5.530;2022-10-26T11:33:19;8.35;;;2.08;;
59788;SDS011;47353;51.614;5.530;2022-10-26T11:35:51;6.20;;;2.08;;
59788;SDS011;47353;51.614;5.530;2022-10-26T11:38:35;8.60;;;2.20;;
59788;SDS011;47353;51.614;5.530;2022-10-26T11:43:55;6.78;;;2.40;;
59788;SDS011;47353;51.614;5.530;2022-10-26T11:46:55;5.43;;;2.53;;
59788;SDS011;47353;51.614;5.530;2022-10-26T11:52:49;5.65;;;2.53;;
59788;SDS011;47353;51.614;5.530;2022-10-26T11:55:18;3.80;;;2.30;;
59788;SDS011;47353;51.614;5.530;2022-10-26T11:57:46;6.15;;;2.72;;
59788;SDS011;47353;51.614;5.530;2022-10-26T12:00:14;4.00;;;2.60;;
59788;SDS011;47353;51.614;5.530;2022-10-26T12:02:42;4.68;;;2.58;;
59788;SDS011;47353;51.614;5.530;2022-10-26T12:07:40;7.13;;;2.28;;
59788;SDS011;47353;51.614;5.530;2022-10-26T12:10:20;6.63;;;2.58;;
59788;SDS011;47353;51.614;5.530;2022-10-26T12:12:57;5.72;;;2.15;;
59788;SDS011;47353;51.614;5.530;2022-10-26T12:16:00;5.55;;;2.10;;
59788;SDS011;47353;51.614;5.530;2022-10-26T12:18:47;6.57;;;2.10;;
59788;SDS011;47353;51.614;5.530;2022-10-26T12:21:23;5.25;;;2.38;;
59788;SDS011;47353;51.614;5.530;2022-10-26T12:28:48;4.57;;;1.65;;
59788;SDS011;47353;51.614;5.530;2022-10-26T12:33:59;6.35;;;1.52;;
59788;SDS011;47353;51.614;5.530;2022-10-26T12:39:29;4.82;;;1.88;;
59788;SDS011;47353;51.614;5.530;2022-10-26T12:41:56;6.18;;;1.83;;
59788;SDS011;47353;51.614;5.530;2022-10-26T12:44:38;5.30;;;1.80;;
59788;SDS011;47353;51.614;5.530;2022-10-26T12:47:05;4.43;;;1.63;;
59788;SDS011;47353;51.614;5.530;2022-10-26T12:52:51;6.20;;;1.70;;
59788;SDS011;47353;51.614;5.530;2022-10-26T13:00:24;3.42;;;1.30;;
59788;SDS011;47353;51.614;5.530;2022-10-26T13:03:09;3.50;;;1.60;;
59788;SDS011;47353;51.614;5.530;2022-10-26T13:05:42;4.75;;;1.38;;
59788;SDS011;47353;51.614;5.530;2022-10-26T13:08:38;6.05;;;1.50;;
59788;SDS011;47353;51.614;5.530;2022-10-26T13:11:34;5.00;;;1.63;;
59788;SDS011;47353;51.614;5.530;2022-10-26T13:14:06;5.05;;;1.35;;
59788;SDS011;47353;51.614;5.530;2022-10-26T13:16:42;3.38;;;1.30;;
59788;SDS011;47353;51.614;5.530;2022-10-26T13:19:21;8.85;;;1.88;;
59788;SDS011;47353;51.614;5.530;2022-10-26T13:21:54;2.88;;;1.20;;
59788;SDS011;47353;51.614;5.530;2022-10-26T13:24:23;2.70;;;1.13;;
59788;SDS011;47353;51.614;5.530;2022-10-26T13:27:20;5.32;;;1.30;;
59788;SDS011;47353;51.614;5.530;2022-10-26T13:32:28;5.07;;;1.17;;
59788;SDS011;47353;51.614;5.530;2022-10-26T13:34:58;2.50;;;1.20;;
59788;SDS011;47353;51.614;5.530;2022-10-26T13:37:26;6.88;;;1.20;;
59788;SDS011;47353;51.614;5.530;2022-10-26T13:39:54;5.40;;;1.38;;
59788;SDS011;47353;51.614;5.530;2022-10-26T13:42:22;4.82;;;1.35;;
59788;SDS011;47353;51.614;5.530;2022-10-26T13:47:28;2.53;;;1.27;;
59788;SDS011;47353;51.614;5.530;2022-10-26T13:50:03;4.22;;;1.13;;
59788;SDS011;47353;51.614;5.530;2022-10-26T13:52:33;5.88;;;1.20;;
59788;SDS011;47353;51.614;5.530;2022-10-26T14:00:59;2.33;;;1.10;;
59788;SDS011;47353;51.614;5.530;2022-10-26T14:03:25;3.55;;;1.20;;
59788;SDS011;47353;51.614;5.530;2022-10-26T14:05:50;7.32;;;1.30;;
59788;SDS011;47353;51.614;5.530;2022-10-26T14:08:16;2.80;;;1.02;;
59788;SDS011;47353;51.614;5.530;2022-10-26T14:10:44;6.35;;;1.33;;
59788;SDS011;47353;51.614;5.530;2022-10-26T14:13:13;5.32;;;1.40;;
59788;SDS011;47353;51.614;5.530;2022-10-26T14:15:45;2.35;;;1.23;;
59788;SDS011;47353;51.614;5.530;2022-10-26T14:18:14;6.20;;;1.65;;
59788;SDS011;47353;51.614;5.530;2022-10-26T14:20:46;2.97;;;1.33;;
59788;SDS011;47353;51.614;5.530;2022-10-26T14:25:52;6.88;;;1.20;;
59788;SDS011;47353;51.614;5.530;2022-10-26T14:28:19;6.95;;;1.23;;
59788;SDS011;47353;51.614;5.530;2022-10-26T14:31:12;4.85;;;1.27;;
59788;SDS011;47353;51.614;5.530;2022-10-26T14:33:44;3.10;;;1.02;;
59788;SDS011;47353;51.614;5.530;2022-10-26T14:36:09;3.85;;;1.30;;
59788;SDS011;47353;51.614;5.530;2022-10-26T14:38:38;3.25;;;1.20;;
59788;SDS011;47353;51.614;5.530;2022-10-26T14:41:09;4.13;;;1.30;;
59788;SDS011;47353;51.614;5.530;2022-10-26T14:43:36;2.72;;;1.13;;
59788;SDS011;47353;51.614;5.530;2022-10-26T14:46:02;2.95;;;1.20;;
59788;SDS011;47353;51.614;5.530;2022-10-26T14:48:31;6.50;;;1.52;;
59788;SDS011;47353;51.614;5.530;2022-10-26T14:53:31;6.80;;;1.30;;
59788;SDS011;47353;51.614;5.530;2022-10-26T14:55:59;7.03;;;1.25;;
59788;SDS011;47353;51.614;5.530;2022-10-26T14:58:27;5.10;;;1.20;;
59788;SDS011;47353;51.614;5.530;2022-10-26T15:03:39;5.00;;;1.40;;
59788;SDS011;47353;51.614;5.530;2022-10-26T15:06:27;6.93;;;2.20;;
59788;SDS011;47353;51.614;5.530;2022-10-26T15:08:54;5.15;;;1.20;;
59788;SDS011;47353;51.614;5.530;2022-10-26T15:11:27;8.65;;;1.30;;
59788;SDS011;47353;51.614;5.530;2022-10-26T15:13:54;3.83;;;1.20;;
59788;SDS011;47353;51.614;5.530;2022-10-26T15:16:22;5.25;;;1.60;;
59788;SDS011;47353;51.614;5.530;2022-10-26T15:18:54;4.03;;;1.40;;
59788;SDS011;47353;51.614;5.530;2022-10-26T15:21:30;5.82;;;1.30;;
59788;SDS011;47353;51.614;5.530;2022-10-26T15:24:00;7.55;;;1.70;;
59788;SDS011;47353;51.614;5.530;2022-10-26T15:26:27;9.25;;;1.80;;
59788;SDS011;47353;51.614;5.530;2022-10-26T15:28:54;7.47;;;1.80;;
59788;SDS011;47353;51.614;5.530;2022-10-26T15:36:17;5.65;;;1.40;;
59788;SDS011;47353;51.614;5.530;2022-10-26T15:38:44;5.13;;;1.50;;
59788;SDS011;47353;51.614;5.530;2022-10-26T15:41:22;3.58;;;1.30;;
59788;SDS011;47353;51.614;5.530;2022-10-26T15:43:52;8.95;;;1.58;;
59788;SDS011;47353;51.614;5.530;2022-10-26T15:46:22;8.95;;;2.03;;
59788;SDS011;47353;51.614;5.530;2022-10-26T15:48:56;8.25;;;1.73;;
59788;SDS011;47353;51.614;5.530;2022-10-26T15:51:23;9.15;;;1.98;;
59788;SDS011;47353;51.614;5.530;2022-10-26T15:53:49;6.63;;;1.77;;
59788;SDS011;47353;51.614;5.530;2022-10-26T15:56:18;8.73;;;1.60;;
59788;SDS011;47353;51.614;5.530;2022-10-26T15:58:47;5.67;;;1.40;;
59788;SDS011;47353;51.614;5.530;2022-10-26T16:01:20;7.05;;;1.70;;
59788;SDS011;47353;51.614;5.530;2022-10-26T16:03:47;5.30;;;1.48;;
59788;SDS011;47353;51.614;5.530;2022-10-26T16:06:32;7.07;;;1.70;;
59788;SDS011;47353;51.614;5.530;2022-10-26T16:09:00;7.65;;;1.70;;
59788;SDS011;47353;51.614;5.530;2022-10-26T16:11:26;5.95;;;1.80;;
59788;SDS011;47353;51.614;5.530;2022-10-26T16:13:52;6.15;;;1.90;;
59788;SDS011;47353;51.614;5.530;2022-10-26T16:16:18;5.15;;;1.88;;
59788;SDS011;47353;51.614;5.530;2022-10-26T16:18:44;8.30;;;1.90;;
59788;SDS011;47353;51.614;5.530;2022-10-26T16:21:13;7.93;;;2.00;;
59788;SDS011;47353;51.614;5.530;2022-10-26T16:23:39;6.22;;;2.00;;
59788;SDS011;47353;51.614;5.530;2022-10-26T16:26:05;3.38;;;1.58;;
59788;SDS011;47353;51.614;5.530;2022-10-26T16:28:31;5.40;;;1.77;;
59788;SDS011;47353;51.614;5.530;2022-10-26T16:31:03;6.47;;;2.22;;
59788;SDS011;47353;51.614;5.530;2022-10-26T16:33:30;6.85;;;2.30;;
59788;SDS011;47353;51.614;5.530;2022-10-26T16:35:56;5.28;;;2.30;;
59788;SDS011;47353;51.614;5.530;2022-10-26T16:38:23;7.22;;;2.17;;
59788;SDS011;47353;51.614;5.530;2022-10-26T16:40:49;6.80;;;2.35;;
59788;SDS011;47353;51.614;5.530;2022-10-26T16:43:14;5.07;;;2.00;;
59788;SDS011;47353;51.614;5.530;2022-10-26T16:45:39;5.82;;;1.90;;
59788;SDS011;47353;51.614;5.530;2022-10-26T16:48:08;6.20;;;2.13;;
59788;SDS011;47353;51.614;5.530;2022-10-26T16:50:39;6.82;;;1.77;;
59788;SDS011;47353;51.614;5.530;2022-10-26T16:53:04;8.70;;;2.17;;
59788;SDS011;47353;51.614;5.530;2022-10-26T16:55:30;10.38;;;2.42;;
59788;SDS011;47353;51.614;5.530;2022-10-26T16:57:56;9.68;;;2.80;;
59788;SDS011;47353;51.614;5.530;2022-10-26T17:00:21;7.20;;;2.80;;
59788;SDS011;47353;51.614;5.530;2022-10-26T17:02:46;7.18;;;2.38;;
59788;SDS011;47353;51.614;5.530;2022-10-26T17:05:12;8.68;;;3.28;;
59788;SDS011;47353;51.614;5.530;2022-10-26T17:07:37;9.95;;;3.22;;
59788;SDS011;47353;51.614;5.530;2022-10-26T17:10:03;7.45;;;3.22;;
59788;SDS011;47353;51.614;5.530;2022-10-26T17:12:28;8.90;;;4.07;;
59788;SDS011;47353;51.614;5.530;2022-10-26T17:14:54;11.05;;;4.35;;
59788;SDS011;47353;51.614;5.530;2022-10-26T17:17:22;7.72;;;5.25;;
59788;SDS011;47353;51.614;5.530;2022-10-26T17:19:47;8.93;;;4.35;;